Terminal Aerodrome Forecast
Issued by NWS

Home | Current Version | Previous Version | Text Only | Print | Product List | Glossary On
Versions: 1 2 3 4 5 6 7 8 9 10 11 12 13 14 15
000
FTUS45 KGGW 251720
TAFOLF
TAF
KOLF 251720Z 2518/2618 23006KT P6SM VCSH SCT012 OVC025
      TEMPO 2518/2522 5SM -SN
     FM252200 26011KT P6SM VCSH OVC020
     FM260700 14004KT P6SM BKN015=

USA.gov is the U.S. government's official web portal to all federal, state and local government web resources and services.